Laredo International Airport
KLRD : rendu visible

Aérodrome :











RETROUVEZ-NOUS SUR...

 
LOGIN :

S'inscrire | Disclaimer

   EN    FR    IT 

 









Légende :    VFR   VFR Marginal   IFR   IFR Intensif   IFR Très Intensif
Visi : 
Plafond : 
>= 8 km
>= 3000ft
5 à 8 km
1000 à 3000 ft
1500m à 5 km
500 à 1000 ft
800 à 1500m
200 à 500 ft
< 800m
< 200 ft
Symboles :   Orages  Brouillard  Fortes neiges  Fortes précipitations  Vent > 20 kt






- Altitude de l'aérodrome : 508 ft
- Code IATA : LRD


KLRD - Laredo International

DERNIER METAR :
  • 151656Z 29004KT 10SM CLR 14/07 A3044 RMK AO2 SLP308 T01440067

METARs EXPIRÉS :
  • 151556Z 00000KT 10SM CLR 13/08 A3045 RMK AO2 SLP314 T01280078
  • 151456Z 00000KT 10SM CLR 11/07 A3045 RMK AO2 SLP313 T01060072 53010

TAF KLRD
Valide du 15 à 18h jusqu'au 16 à 18h UTC


151730Z 1518/1618 33005KT P6SM SKC
FM160000 VRB03KT P6SM SKC
FM161600 15006KT P6SM SKC



MET'MAP, la Météo Aéronautique d'un coup d'oeil ! - Copyright ORBIFLY Décembre 2007 - Disclaimer

ORBIFLY MET'MAP TEAM :

Programmation & Développement : Alexandra Zaïnal
Conception & Développement : Baudouin d'Aumeries
Co-Programmation & Développement : Marc-Olivier Méhu
Soutien technique & logistique : Manuel Goepfert

Contact : metmap@orbifly.com




SOURCES & CREDITS :

   NOAA       Earth
Advisory